AAL1453 MMUN-KMIA
Flight info
| Callsign | AAL1453 |
|---|---|
| Flight time | N/A |
| Altitude | 37000 |
| Route | NUDAL1A NUDAL UV106 PODON UG765 MAXIM SNDBR3 |
| Aircraft | A321/M-VGDW/C |
Departure
| Time | 2026-05-01 14:24 |
|---|---|
| Airport | Cancún International Airport (MMUN) |
Arrival
| Time | N/A |
|---|---|
| Airport | Miami International Airport (KMIA) |
| Time | Latitude | Longitude | Altitude | Speed | Heading |
|---|---|---|---|---|---|
| 2026-05-01 14:10 | 21.03671 | -86.86714 | 20 ft | 0 kts | 303° |
| 2026-05-01 14:13 | 21.03668 | -86.86711 | 29 ft | 3 kts | 303° |
| 2026-05-01 14:13 | 21.03655 | -86.86686 | 29 ft | 4 kts | 295° |
| 2026-05-01 14:14 | 21.03645 | -86.86659 | 29 ft | 4 kts | 278° |
| 2026-05-01 14:14 | 21.03647 | -86.86633 | 29 ft | 4 kts | 232° |
| 2026-05-01 14:14 | 21.03653 | -86.86626 | 29 ft | 0 kts | 212° |
| 2026-05-01 14:17 | 21.03645 | -86.86631 | 29 ft | 4 kts | 212° |
| 2026-05-01 14:17 | 21.03598 | -86.86665 | 29 ft | 13 kts | 214° |
| 2026-05-01 14:18 | 21.03514 | -86.86725 | 29 ft | 16 kts | 214° |
| 2026-05-01 14:18 | 21.03417 | -86.86794 | 29 ft | 17 kts | 213° |
| 2026-05-01 14:18 | 21.03345 | -86.86880 | 30 ft | 15 kts | 278° |
| 2026-05-01 14:18 | 21.03400 | -86.86976 | 30 ft | 16 kts | 303° |
| 2026-05-01 14:19 | 21.03461 | -86.87075 | 31 ft | 16 kts | 303° |
| 2026-05-01 14:19 | 21.03526 | -86.87179 | 31 ft | 17 kts | 303° |
| 2026-05-01 14:19 | 21.03594 | -86.87289 | 31 ft | 18 kts | 304° |
| 2026-05-01 14:19 | 21.03668 | -86.87401 | 31 ft | 19 kts | 304° |
| 2026-05-01 14:20 | 21.03741 | -86.87522 | 31 ft | 20 kts | 304° |
| 2026-05-01 14:20 | 21.03903 | -86.87778 | 31 ft | 22 kts | 304° |
| 2026-05-01 14:20 | 21.03989 | -86.87916 | 30 ft | 23 kts | 303° |
| 2026-05-01 14:21 | 21.04077 | -86.88061 | 30 ft | 24 kts | 303° |
| 2026-05-01 14:21 | 21.04172 | -86.88208 | 30 ft | 24 kts | 304° |
| 2026-05-01 14:21 | 21.04266 | -86.88360 | 31 ft | 25 kts | 303° |
| 2026-05-01 14:22 | 21.04464 | -86.88674 | 31 ft | 26 kts | 304° |
| 2026-05-01 14:22 | 21.04567 | -86.88838 | 30 ft | 27 kts | 304° |
| 2026-05-01 14:22 | 21.04642 | -86.88987 | 30 ft | 16 kts | 256° |
| 2026-05-01 14:22 | 21.04564 | -86.89059 | 32 ft | 15 kts | 214° |
| 2026-05-01 14:23 | 21.04491 | -86.89036 | 32 ft | 12 kts | 120° |
| 2026-05-01 14:23 | 21.04437 | -86.88947 | 33 ft | 21 kts | 123° |
| 2026-05-01 14:23 | 21.04218 | -86.88613 | 35 ft | 90 kts | 127° |
| 2026-05-01 14:23 | 21.03763 | -86.87870 | 36 ft | 146 kts | 123° |
| 2026-05-01 14:24 | 21.03149 | -86.86906 | 439 ft | 158 kts | 126° |
| 2026-05-01 14:24 | 21.02566 | -86.85945 | 1201 ft | 149 kts | 124° |
| 2026-05-01 14:24 | 21.02000 | -86.85018 | 1674 ft | 152 kts | 126° |
| 2026-05-01 14:24 | 21.01371 | -86.84024 | 1976 ft | 172 kts | 126° |
| 2026-05-01 14:25 | 21.00687 | -86.82870 | 2157 ft | 196 kts | 120° |
| 2026-05-01 14:25 | 21.00026 | -86.81504 | 2331 ft | 219 kts | 120° |
| 2026-05-01 14:25 | 20.99287 | -86.79976 | 2623 ft | 241 kts | 119° |
| 2026-05-01 14:25 | 20.98508 | -86.78352 | 3251 ft | 248 kts | 119° |
| 2026-05-01 14:26 | 20.97714 | -86.76697 | 3962 ft | 252 kts | 120° |
| 2026-05-01 14:26 | 20.96164 | -86.73243 | 4917 ft | 265 kts | 108° |
| 2026-05-01 14:26 | 20.96091 | -86.71257 | 5146 ft | 277 kts | 82° |
| 2026-05-01 14:27 | 20.96490 | -86.69236 | 5922 ft | 277 kts | 81° |
| 2026-05-01 14:27 | 20.96879 | -86.67203 | 6610 ft | 281 kts | 82° |
| 2026-05-01 14:27 | 20.97264 | -86.65147 | 7302 ft | 282 kts | 82° |
| 2026-05-01 14:28 | 20.98032 | -86.61019 | 8699 ft | 284 kts | 82° |
| 2026-05-01 14:28 | 20.98515 | -86.58968 | 9421 ft | 286 kts | 73° |
| 2026-05-01 14:28 | 20.99209 | -86.56961 | 10045 ft | 289 kts | 72° |
| 2026-05-01 14:28 | 20.99927 | -86.54892 | 10278 ft | 307 kts | 72° |
| 2026-05-01 14:29 | 21.00696 | -86.52677 | 10403 ft | 327 kts | 71° |
| 2026-05-01 14:29 | 21.01506 | -86.50357 | 10737 ft | 337 kts | 71° |
| 2026-05-01 14:30 | 21.03989 | -86.43220 | 12456 ft | 343 kts | 70° |
| 2026-05-01 14:30 | 21.04815 | -86.40841 | 12984 ft | 347 kts | 70° |
| 2026-05-01 14:30 | 21.05658 | -86.38411 | 13547 ft | 349 kts | 69° |
| 2026-05-01 14:31 | 21.07364 | -86.33497 | 14519 ft | 356 kts | 68° |
| 2026-05-01 14:31 | 21.08230 | -86.31008 | 15023 ft | 358 kts | 69° |
| 2026-05-01 14:31 | 21.09104 | -86.28491 | 15460 ft | 363 kts | 69° |
| 2026-05-01 14:31 | 21.09985 | -86.25941 | 15941 ft | 366 kts | 68° |
| 2026-05-01 14:32 | 21.10877 | -86.23359 | 16344 ft | 372 kts | 68° |
| 2026-05-01 14:32 | 21.11777 | -86.20751 | 16809 ft | 376 kts | 68° |
| 2026-05-01 14:32 | 21.12691 | -86.18109 | 17244 ft | 380 kts | 68° |
| 2026-05-01 14:32 | 21.13612 | -86.15440 | 17707 ft | 384 kts | 69° |
| 2026-05-01 14:33 | 21.14540 | -86.12742 | 18162 ft | 388 kts | 66° |
| 2026-05-01 14:33 | 21.15477 | -86.10013 | 18550 ft | 392 kts | 68° |
| 2026-05-01 14:33 | 21.16423 | -86.07263 | 18935 ft | 396 kts | 68° |
| 2026-05-01 14:33 | 21.17381 | -86.04482 | 19337 ft | 399 kts | 67° |
| 2026-05-01 14:34 | 21.18345 | -86.01681 | 19745 ft | 403 kts | 67° |
| 2026-05-01 14:34 | 21.19294 | -85.98839 | 20133 ft | 407 kts | 70° |
| 2026-05-01 14:34 | 21.19935 | -85.95867 | 20533 ft | 412 kts | 77° |
| 2026-05-01 14:34 | 21.20508 | -85.92841 | 20931 ft | 416 kts | 76° |
| 2026-05-01 14:35 | 21.21085 | -85.89796 | 21340 ft | 419 kts | 77° |
| 2026-05-01 14:35 | 21.21666 | -85.86724 | 21754 ft | 422 kts | 76° |
| 2026-05-01 14:35 | 21.22253 | -85.83623 | 22152 ft | 425 kts | 77° |
| 2026-05-01 14:35 | 21.22844 | -85.80502 | 22543 ft | 429 kts | 76° |
| 2026-05-01 14:36 | 21.23440 | -85.77359 | 22917 ft | 432 kts | 76° |
| 2026-05-01 14:36 | 21.24042 | -85.74193 | 23290 ft | 435 kts | 76° |
| 2026-05-01 14:36 | 21.24648 | -85.71002 | 23626 ft | 438 kts | 76° |
| 2026-05-01 14:36 | 21.25256 | -85.67798 | 23934 ft | 441 kts | 76° |
| 2026-05-01 14:37 | 21.25857 | -85.64608 | 24252 ft | 443 kts | 77° |
| 2026-05-01 14:37 | 21.26467 | -85.61370 | 24573 ft | 445 kts | 77° |
| 2026-05-01 14:37 | 21.27096 | -85.58114 | 24892 ft | 447 kts | 76° |
| 2026-05-01 14:37 | 21.27737 | -85.54844 | 25215 ft | 449 kts | 76° |
| 2026-05-01 14:38 | 21.28384 | -85.51566 | 25530 ft | 451 kts | 76° |
| 2026-05-01 14:38 | 21.29040 | -85.48267 | 25844 ft | 453 kts | 76° |
| 2026-05-01 14:38 | 21.29703 | -85.44953 | 26151 ft | 455 kts | 76° |
| 2026-05-01 14:38 | 21.30372 | -85.41630 | 26462 ft | 457 kts | 76° |
| 2026-05-01 14:39 | 21.31047 | -85.38289 | 26778 ft | 459 kts | 76° |
| 2026-05-01 14:39 | 21.31730 | -85.34936 | 27085 ft | 461 kts | 76° |
| 2026-05-01 14:39 | 21.32419 | -85.31567 | 27395 ft | 463 kts | 76° |
| 2026-05-01 14:39 | 21.33115 | -85.28186 | 27704 ft | 465 kts | 76° |
| 2026-05-01 14:40 | 21.33819 | -85.24790 | 28010 ft | 467 kts | 76° |
| 2026-05-01 14:40 | 21.34557 | -85.21387 | 28305 ft | 469 kts | 72° |
| 2026-05-01 14:40 | 21.35832 | -85.18181 | 28570 ft | 468 kts | 57° |
| 2026-05-01 14:40 | 21.37822 | -85.15445 | 28844 ft | 466 kts | 41° |
| 2026-05-01 14:41 | 21.40376 | -85.13331 | 29105 ft | 464 kts | 31° |
| 2026-05-01 14:41 | 21.43090 | -85.11438 | 29364 ft | 466 kts | 31° |
| 2026-05-01 14:41 | 21.45822 | -85.09535 | 29638 ft | 469 kts | 31° |
| 2026-05-01 14:41 | 21.48564 | -85.07618 | 29908 ft | 471 kts | 31° |
| 2026-05-01 14:42 | 21.51312 | -85.05691 | 30158 ft | 473 kts | 31° |
| 2026-05-01 14:42 | 21.54070 | -85.03754 | 30397 ft | 475 kts | 31° |
| 2026-05-01 14:42 | 21.56847 | -85.01802 | 30635 ft | 477 kts | 31° |
| 2026-05-01 14:42 | 21.59624 | -84.99846 | 30893 ft | 479 kts | 31° |
| 2026-05-01 14:43 | 21.62417 | -84.97882 | 31200 ft | 479 kts | 31° |
| 2026-05-01 14:43 | 21.65201 | -84.95928 | 31586 ft | 477 kts | 31° |
| 2026-05-01 14:43 | 21.67975 | -84.93976 | 31956 ft | 475 kts | 31° |
| 2026-05-01 14:43 | 21.70707 | -84.92055 | 32334 ft | 474 kts | 31° |
| 2026-05-01 14:44 | 21.73461 | -84.90120 | 32718 ft | 472 kts | 31° |
| 2026-05-01 14:44 | 21.78942 | -84.86270 | 33456 ft | 469 kts | 31° |
| 2026-05-01 14:44 | 21.81670 | -84.84352 | 33810 ft | 468 kts | 31° |
| 2026-05-01 14:45 | 21.84391 | -84.82436 | 34138 ft | 467 kts | 31° |
| 2026-05-01 14:45 | 21.89809 | -84.78609 | 34764 ft | 464 kts | 31° |
| 2026-05-01 14:45 | 21.92499 | -84.76706 | 35087 ft | 462 kts | 31° |
| 2026-05-01 14:46 | 21.95181 | -84.74804 | 35414 ft | 460 kts | 30° |
| 2026-05-01 14:46 | 22.00509 | -84.71026 | 36066 ft | 457 kts | 30° |
| 2026-05-01 14:46 | 22.03158 | -84.69150 | 36369 ft | 455 kts | 30° |
| 2026-05-01 14:47 | 22.05800 | -84.67287 | 36665 ft | 454 kts | 30° |
| 2026-05-01 14:47 | 22.08442 | -84.65425 | 36897 ft | 453 kts | 30° |
| 2026-05-01 14:48 | 22.16323 | -84.59843 | 36975 ft | 451 kts | 30° |
| 2026-05-01 14:48 | 22.24172 | -84.54264 | 36975 ft | 450 kts | 30° |
| 2026-05-01 14:49 | 22.34641 | -84.46826 | 36978 ft | 451 kts | 30° |
| 2026-05-01 14:50 | 22.45141 | -84.39362 | 36991 ft | 453 kts | 30° |
| 2026-05-01 14:51 | 22.53036 | -84.33724 | 36998 ft | 453 kts | 29° |
| 2026-05-01 14:52 | 22.60913 | -84.28110 | 37000 ft | 454 kts | 30° |
| 2026-05-01 14:52 | 22.65949 | -84.23968 | 37002 ft | 459 kts | 43° |
| 2026-05-01 14:53 | 22.68048 | -84.21348 | 37023 ft | 462 kts | 46° |
| 2026-05-01 14:53 | 22.72163 | -84.15991 | 37010 ft | 463 kts | 46° |
| 2026-05-01 14:54 | 22.76315 | -84.10660 | 37006 ft | 463 kts | 45° |
| 2026-05-01 14:54 | 22.80515 | -84.05370 | 37007 ft | 463 kts | 45° |
| 2026-05-01 14:55 | 22.84730 | -84.00076 | 37007 ft | 464 kts | 45° |
| 2026-05-01 14:55 | 22.88924 | -83.94764 | 37008 ft | 464 kts | 45° |
| 2026-05-01 14:56 | 22.93115 | -83.89439 | 37013 ft | 464 kts | 45° |